KPYX

Perryton Ochiltree County Airport

Perryton, Texas, USA
METAR KPYX 232255Z AUTO 33009G16KT 10SM CLR 11/M10 A3026 RMK AO2 T01141096
Observed Flight Rules
Jan-23 @ 22:55 UTC (26 minutes ago) Visual Flight Rules
Wind Visibility Clouds
330° at 9 knots
 Gusting to 16 knots
10 miles
  • Clear skies
Temperatures Readings
Current 11°C / 52°F
Dewpoint -10°C / 14°F
Humidity 22%
Altimeter 30.26" Hg
Pressure 1025 hPa
Elevation 889
METAR KPYX 232255Z AUTO 33009G16KT 10SM CLR 11/M10 A3026 RMK AO2 T01141096
Observed Flight Rules
Jan-23 @ 22:55 UTC
(26 minutes ago)
VFR
Wind Visibility
330° at 9 knots
 Gusting to 16 knots
10 miles
Clouds
  • Clear skies
Temperature Dewpoint
11°C / 52°F -10°C / 14°F
Humidity Altimeter Pressure
22% 30.26" Hg 1025 hPa